Aviation Digital Data Service (ADDS)

Output produced by TAFs form (1942 UTC 31 October 2014)
found at http://www.aviationweather.gov/adds/tafs/
 
KPOU 311732Z 3118/0118 36004KT P6SM SCT050 
     FM010200 02004KT P6SM OVC040 
     FM011400 02009KT P6SM VCSH OVC040